This is the latest recevied weather packets stored in our database for station/object KI5UTS-13. If no packets are shown the sender has not sent any weather packets the latest 10 day(s).
| Time | Temp. | Humidity | Pressure | Rain* | Wind** | Luminosity | Snow |
|---|---|---|---|---|---|---|---|
| 1788456115 | 34.44° C | 61% | 1017.4 hPa | 0 mm | - | 835 W/m² | - |
| 1788455810 | 33.33° C | 64% | 1017.6 hPa | 0 mm | - | 793 W/m² | - |
| 1788455507 | 33.89° C | 64% | 1017.4 hPa | 0 mm | - | 189 W/m² | - |
| 1788455205 | 33.33° C | 65% | 1017.4 hPa | 0 mm | - | 773 W/m² | - |
| 1788454901 | 32.78° C | 66% | 1017.6 hPa | 0 mm | - | 806 W/m² | - |
| 1788454598 | 32.22° C | 69% | 1017.5 hPa | 0 mm | - | 678 W/m² | - |
| 1788454293 | 32.78° C | 67% | 1017.8 hPa | 0 mm | - | 216 W/m² | - |
| 1788453988 | 32.78° C | 68% | 1017.7 hPa | 0 mm | - | 199 W/m² | - |
| 1788453684 | 33.33° C | 66% | 1017.7 hPa | 0 mm | - | 239 W/m² | - |
| 1788453379 | 33.33° C | 66% | 1017.7 hPa | 0 mm | - | 824 W/m² | - |
| 1788453075 | 32.78° C | 67% | 1017.5 hPa | 0 mm | - | 222 W/m² | - |
| 1788452771 | 33.89° C | 65% | 1017.7 hPa | 0 mm | - | 317 W/m² | - |
| 1788452467 | 32.78° C | 67% | 1017.8 hPa | 0 mm | - | 798 W/m² | - |
| 1788452162 | 32.78° C | 69% | 1017.8 hPa | 0 mm | - | 236 W/m² | - |
| 1788451857 | 33.89° C | 66% | 1017.7 hPa | 0 mm | - | 269 W/m² | - |
| 1788451557 | 33.33° C | 68% | 1017.6 hPa | 0 mm | - | 835 W/m² | - |
| 1788451251 | 32.22° C | 72% | 1017.7 hPa | 0 mm | - | 838 W/m² | - |
| 1788450950 | 32.22° C | 72% | 1017.6 hPa | 0 mm | - | 607 W/m² | - |
| 1788450646 | 32.22° C | 72% | 1017.8 hPa | 0 mm | - | 852 W/m² | - |
| 1788450342 | 32.78° C | 71% | 1017.9 hPa | 0 mm | - | 187 W/m² | - |
| 1788450038 | 32.22° C | 72% | 1017.8 hPa | 0 mm | - | 797 W/m² | - |
| 1788449733 | 32.22° C | 71% | 1017.5 hPa | 0 mm | - | 854 W/m² | - |
| 1788449429 | 32.22° C | 71% | 1017.7 hPa | 0 mm | - | 212 W/m² | - |
| 1788449125 | 31.67° C | 73% | 1017.8 hPa | 0 mm | - | 953 W/m² | - |
| 1788448821 | 32.22° C | 74% | 1017.5 hPa | 0 mm | - | 214 W/m² | - |
* Rain latest hour (hover to see other rain measurements)
** Current wind speed in m/s (hover to see current wind gust speed)